Terminal Aerodrome Forecast
Issued by NWS

Home | Current Version | Previous Version | Text Only | Print | Product List | Glossary On
Versions: 1 2 3 4 5 6 7 8 9 10 11 12 13 14 15 16 17 18 19 20 21 22 23 24
000
FTAK31 PAJN 281122
TAFAYA
TAF
PAYA 281122Z 2812/2912 07008KT P6SM VCSH OVC040 WS020/06035KT
     FM281400 07008KT P6SM -SHRA SCT015 OVC040 WS020/06035KT
     FM281700 VRB05KT P6SM VCSH SCT015 BKN050
     FM282100 33008KT P6SM SCT070
     FM290300 VRB03KT P6SM BKN100
      AMD LTD TO CLD VIS AND WIND 2901/2910=

USA.gov is the U.S. government's official web portal to all federal, state and local government web resources and services.